sensor_id;sensor_type;location;lat;lon;timestamp;P1;durP1;ratioP1;P2;durP2;ratioP2
70733;SDS011;58320;48.804;9.252;2023-03-05T00:01:16;32.97;;;12.30;;
70733;SDS011;58320;48.804;9.252;2023-03-05T00:03:54;27.00;;;11.55;;
70733;SDS011;58320;48.804;9.252;2023-03-05T00:06:22;29.73;;;12.13;;
70733;SDS011;58320;48.804;9.252;2023-03-05T00:08:50;26.30;;;11.88;;
70733;SDS011;58320;48.804;9.252;2023-03-05T00:11:17;28.77;;;12.77;;
70733;SDS011;58320;48.804;9.252;2023-03-05T00:13:44;28.83;;;13.00;;
70733;SDS011;58320;48.804;9.252;2023-03-05T00:16:12;31.02;;;13.15;;
70733;SDS011;58320;48.804;9.252;2023-03-05T00:18:39;30.95;;;12.40;;
70733;SDS011;58320;48.804;9.252;2023-03-05T00:23:54;28.40;;;11.83;;
70733;SDS011;58320;48.804;9.252;2023-03-05T00:26:23;33.92;;;12.85;;
70733;SDS011;58320;48.804;9.252;2023-03-05T00:28:50;29.42;;;12.18;;
70733;SDS011;58320;48.804;9.252;2023-03-05T00:31:20;26.65;;;12.07;;
70733;SDS011;58320;48.804;9.252;2023-03-05T00:33:53;32.55;;;13.40;;
70733;SDS011;58320;48.804;9.252;2023-03-05T00:36:25;35.10;;;12.80;;
70733;SDS011;58320;48.804;9.252;2023-03-05T00:38:51;31.52;;;12.73;;
70733;SDS011;58320;48.804;9.252;2023-03-05T00:41:17;31.10;;;12.82;;
70733;SDS011;58320;48.804;9.252;2023-03-05T00:43:43;31.65;;;12.68;;
70733;SDS011;58320;48.804;9.252;2023-03-05T00:46:09;29.63;;;12.80;;
70733;SDS011;58320;48.804;9.252;2023-03-05T00:48:34;30.75;;;12.95;;
70733;SDS011;58320;48.804;9.252;2023-03-05T00:51:00;31.30;;;13.45;;
70733;SDS011;58320;48.804;9.252;2023-03-05T00:53:27;29.27;;;12.90;;
70733;SDS011;58320;48.804;9.252;2023-03-05T00:55:52;27.63;;;11.95;;
70733;SDS011;58320;48.804;9.252;2023-03-05T00:58:18;31.38;;;12.73;;
70733;SDS011;58320;48.804;9.252;2023-03-05T01:00:44;28.67;;;11.70;;
70733;SDS011;58320;48.804;9.252;2023-03-05T01:03:10;32.65;;;13.10;;
70733;SDS011;58320;48.804;9.252;2023-03-05T01:05:35;31.93;;;12.73;;
70733;SDS011;58320;48.804;9.252;2023-03-05T01:08:01;30.35;;;13.27;;
70733;SDS011;58320;48.804;9.252;2023-03-05T01:10:27;28.95;;;12.07;;
70733;SDS011;58320;48.804;9.252;2023-03-05T01:12:54;30.35;;;12.55;;
70733;SDS011;58320;48.804;9.252;2023-03-05T01:15:21;31.10;;;13.33;;
70733;SDS011;58320;48.804;9.252;2023-03-05T01:17:48;31.48;;;12.95;;
70733;SDS011;58320;48.804;9.252;2023-03-05T01:20:14;32.28;;;13.73;;
70733;SDS011;58320;48.804;9.252;2023-03-05T01:22:42;28.77;;;12.85;;
70733;SDS011;58320;48.804;9.252;2023-03-05T01:25:08;28.37;;;11.87;;
70733;SDS011;58320;48.804;9.252;2023-03-05T01:27:34;30.08;;;12.55;;
70733;SDS011;58320;48.804;9.252;2023-03-05T01:30:00;30.85;;;13.40;;
70733;SDS011;58320;48.804;9.252;2023-03-05T01:32:26;26.60;;;11.53;;
70733;SDS011;58320;48.804;9.252;2023-03-05T01:34:51;33.28;;;12.38;;
70733;SDS011;58320;48.804;9.252;2023-03-05T01:37:17;29.45;;;13.25;;
70733;SDS011;58320;48.804;9.252;2023-03-05T01:39:43;28.13;;;12.43;;
70733;SDS011;58320;48.804;9.252;2023-03-05T01:42:08;28.75;;;12.45;;
70733;SDS011;58320;48.804;9.252;2023-03-05T01:44:34;30.53;;;12.53;;
70733;SDS011;58320;48.804;9.252;2023-03-05T01:47:00;27.27;;;11.57;;
70733;SDS011;58320;48.804;9.252;2023-03-05T01:49:35;28.97;;;11.13;;
70733;SDS011;58320;48.804;9.252;2023-03-05T01:52:11;30.80;;;11.35;;
70733;SDS011;58320;48.804;9.252;2023-03-05T01:54:43;28.70;;;11.80;;
70733;SDS011;58320;48.804;9.252;2023-03-05T01:57:20;33.33;;;12.40;;
70733;SDS011;58320;48.804;9.252;2023-03-05T01:59:55;32.90;;;12.93;;
70733;SDS011;58320;48.804;9.252;2023-03-05T02:02:24;28.63;;;12.93;;
70733;SDS011;58320;48.804;9.252;2023-03-05T02:05:00;26.17;;;11.10;;
70733;SDS011;58320;48.804;9.252;2023-03-05T02:07:31;27.10;;;13.45;;
70733;SDS011;58320;48.804;9.252;2023-03-05T02:10:01;25.13;;;11.87;;
70733;SDS011;58320;48.804;9.252;2023-03-05T02:12:43;31.13;;;12.82;;
70733;SDS011;58320;48.804;9.252;2023-03-05T02:15:09;32.60;;;12.88;;
70733;SDS011;58320;48.804;9.252;2023-03-05T02:17:36;30.55;;;13.73;;
70733;SDS011;58320;48.804;9.252;2023-03-05T02:20:13;33.03;;;13.37;;
70733;SDS011;58320;48.804;9.252;2023-03-05T02:22:48;29.45;;;13.15;;
70733;SDS011;58320;48.804;9.252;2023-03-05T02:25:21;32.65;;;13.35;;
70733;SDS011;58320;48.804;9.252;2023-03-05T02:31:00;30.17;;;13.10;;
70733;SDS011;58320;48.804;9.252;2023-03-05T02:33:26;36.72;;;14.05;;
70733;SDS011;58320;48.804;9.252;2023-03-05T02:35:52;27.17;;;12.05;;
70733;SDS011;58320;48.804;9.252;2023-03-05T02:38:18;30.57;;;12.87;;
70733;SDS011;58320;48.804;9.252;2023-03-05T02:40:46;32.88;;;12.73;;
70733;SDS011;58320;48.804;9.252;2023-03-05T02:43:12;32.45;;;12.93;;
70733;SDS011;58320;48.804;9.252;2023-03-05T02:45:37;29.37;;;12.50;;
70733;SDS011;58320;48.804;9.252;2023-03-05T02:48:03;29.90;;;12.43;;
70733;SDS011;58320;48.804;9.252;2023-03-05T02:50:29;33.15;;;13.10;;
70733;SDS011;58320;48.804;9.252;2023-03-05T02:52:56;29.03;;;13.97;;
70733;SDS011;58320;48.804;9.252;2023-03-05T02:55:23;31.40;;;13.35;;
70733;SDS011;58320;48.804;9.252;2023-03-05T02:57:49;31.75;;;12.20;;
70733;SDS011;58320;48.804;9.252;2023-03-05T03:00:15;32.47;;;12.98;;
70733;SDS011;58320;48.804;9.252;2023-03-05T03:02:42;28.70;;;11.30;;
70733;SDS011;58320;48.804;9.252;2023-03-05T03:05:07;28.13;;;12.25;;
70733;SDS011;58320;48.804;9.252;2023-03-05T03:07:33;31.23;;;12.95;;
70733;SDS011;58320;48.804;9.252;2023-03-05T03:10:00;34.27;;;11.93;;
70733;SDS011;58320;48.804;9.252;2023-03-05T03:12:28;28.20;;;11.68;;
70733;SDS011;58320;48.804;9.252;2023-03-05T03:14:53;26.10;;;11.60;;
70733;SDS011;58320;48.804;9.252;2023-03-05T03:17:19;30.80;;;13.60;;
70733;SDS011;58320;48.804;9.252;2023-03-05T03:19:45;31.23;;;12.50;;
70733;SDS011;58320;48.804;9.252;2023-03-05T03:22:13;27.30;;;12.35;;
70733;SDS011;58320;48.804;9.252;2023-03-05T03:24:40;29.05;;;12.13;;
70733;SDS011;58320;48.804;9.252;2023-03-05T03:27:07;32.43;;;13.70;;
70733;SDS011;58320;48.804;9.252;2023-03-05T03:29:33;29.58;;;12.57;;
70733;SDS011;58320;48.804;9.252;2023-03-05T03:31:59;36.42;;;13.60;;
70733;SDS011;58320;48.804;9.252;2023-03-05T03:34:25;31.80;;;13.00;;
70733;SDS011;58320;48.804;9.252;2023-03-05T03:36:51;33.63;;;12.57;;
70733;SDS011;58320;48.804;9.252;2023-03-05T03:39:18;29.52;;;13.60;;
70733;SDS011;58320;48.804;9.252;2023-03-05T03:41:46;32.17;;;13.15;;
70733;SDS011;58320;48.804;9.252;2023-03-05T03:44:16;28.52;;;12.85;;
70733;SDS011;58320;48.804;9.252;2023-03-05T03:46:44;37.87;;;13.70;;
70733;SDS011;58320;48.804;9.252;2023-03-05T03:49:18;33.85;;;14.45;;
70733;SDS011;58320;48.804;9.252;2023-03-05T03:51:46;31.10;;;12.35;;
70733;SDS011;58320;48.804;9.252;2023-03-05T03:54:14;30.70;;;12.50;;
70733;SDS011;58320;48.804;9.252;2023-03-05T03:56:41;32.72;;;13.20;;
70733;SDS011;58320;48.804;9.252;2023-03-05T03:59:07;28.83;;;12.00;;
70733;SDS011;58320;48.804;9.252;2023-03-05T04:01:33;30.55;;;12.80;;
70733;SDS011;58320;48.804;9.252;2023-03-05T04:03:59;30.90;;;13.25;;
70733;SDS011;58320;48.804;9.252;2023-03-05T04:06:25;28.67;;;11.38;;
70733;SDS011;58320;48.804;9.252;2023-03-05T04:08:51;28.90;;;12.30;;
70733;SDS011;58320;48.804;9.252;2023-03-05T04:11:17;30.07;;;12.00;;
70733;SDS011;58320;48.804;9.252;2023-03-05T04:13:44;29.02;;;12.27;;
70733;SDS011;58320;48.804;9.252;2023-03-05T04:16:11;32.88;;;13.07;;
70733;SDS011;58320;48.804;9.252;2023-03-05T04:18:38;31.85;;;13.70;;
70733;SDS011;58320;48.804;9.252;2023-03-05T04:21:03;29.80;;;12.23;;
70733;SDS011;58320;48.804;9.252;2023-03-05T04:23:29;28.98;;;12.38;;
70733;SDS011;58320;48.804;9.252;2023-03-05T04:25:55;27.65;;;11.00;;
70733;SDS011;58320;48.804;9.252;2023-03-05T04:28:21;28.27;;;12.13;;
70733;SDS011;58320;48.804;9.252;2023-03-05T04:30:47;30.50;;;12.17;;
70733;SDS011;58320;48.804;9.252;2023-03-05T04:33:13;32.00;;;12.45;;
70733;SDS011;58320;48.804;9.252;2023-03-05T04:35:39;28.40;;;12.00;;
70733;SDS011;58320;48.804;9.252;2023-03-05T04:38:04;25.65;;;11.45;;
70733;SDS011;58320;48.804;9.252;2023-03-05T04:40:31;24.17;;;10.90;;
70733;SDS011;58320;48.804;9.252;2023-03-05T04:42:57;27.43;;;10.10;;
70733;SDS011;58320;48.804;9.252;2023-03-05T04:45:22;29.02;;;11.15;;
70733;SDS011;58320;48.804;9.252;2023-03-05T04:47:48;30.10;;;13.17;;
70733;SDS011;58320;48.804;9.252;2023-03-05T04:50:14;32.15;;;13.00;;
70733;SDS011;58320;48.804;9.252;2023-03-05T04:52:40;29.75;;;12.45;;
70733;SDS011;58320;48.804;9.252;2023-03-05T04:55:09;31.70;;;11.73;;
70733;SDS011;58320;48.804;9.252;2023-03-05T04:57:37;26.73;;;11.75;;
70733;SDS011;58320;48.804;9.252;2023-03-05T05:00:04;33.75;;;11.63;;
70733;SDS011;58320;48.804;9.252;2023-03-05T05:02:32;24.05;;;10.30;;
70733;SDS011;58320;48.804;9.252;2023-03-05T05:04:58;25.90;;;10.30;;
70733;SDS011;58320;48.804;9.252;2023-03-05T05:07:24;28.03;;;10.90;;
70733;SDS011;58320;48.804;9.252;2023-03-05T05:09:50;24.65;;;10.57;;
70733;SDS011;58320;48.804;9.252;2023-03-05T05:12:15;29.67;;;10.97;;
70733;SDS011;58320;48.804;9.252;2023-03-05T05:14:41;25.38;;;10.55;;
70733;SDS011;58320;48.804;9.252;2023-03-05T05:17:07;24.85;;;10.90;;
70733;SDS011;58320;48.804;9.252;2023-03-05T05:19:33;23.17;;;10.13;;
70733;SDS011;58320;48.804;9.252;2023-03-05T05:22:00;29.50;;;11.00;;
70733;SDS011;58320;48.804;9.252;2023-03-05T05:24:26;26.73;;;10.43;;
70733;SDS011;58320;48.804;9.252;2023-03-05T05:26:55;26.25;;;10.77;;
70733;SDS011;58320;48.804;9.252;2023-03-05T05:29:21;24.23;;;11.50;;
70733;SDS011;58320;48.804;9.252;2023-03-05T05:31:47;24.20;;;11.07;;
70733;SDS011;58320;48.804;9.252;2023-03-05T05:34:13;25.90;;;11.02;;
70733;SDS011;58320;48.804;9.252;2023-03-05T05:36:38;25.27;;;10.67;;
70733;SDS011;58320;48.804;9.252;2023-03-05T05:39:04;30.90;;;11.07;;
70733;SDS011;58320;48.804;9.252;2023-03-05T05:41:30;27.65;;;10.68;;
70733;SDS011;58320;48.804;9.252;2023-03-05T05:43:56;29.80;;;11.30;;
70733;SDS011;58320;48.804;9.252;2023-03-05T05:46:22;23.77;;;10.82;;
70733;SDS011;58320;48.804;9.252;2023-03-05T05:48:48;28.73;;;11.07;;
70733;SDS011;58320;48.804;9.252;2023-03-05T05:51:16;28.57;;;10.60;;
70733;SDS011;58320;48.804;9.252;2023-03-05T05:53:45;25.92;;;11.52;;
70733;SDS011;58320;48.804;9.252;2023-03-05T05:56:11;26.13;;;10.68;;
70733;SDS011;58320;48.804;9.252;2023-03-05T05:58:38;24.67;;;10.30;;
70733;SDS011;58320;48.804;9.252;2023-03-05T06:01:12;24.17;;;10.38;;
70733;SDS011;58320;48.804;9.252;2023-03-05T06:03:42;22.60;;;9.53;;
70733;SDS011;58320;48.804;9.252;2023-03-05T06:06:12;25.88;;;9.85;;
70733;SDS011;58320;48.804;9.252;2023-03-05T06:08:40;23.70;;;9.70;;
70733;SDS011;58320;48.804;9.252;2023-03-05T06:11:06;25.67;;;9.60;;
70733;SDS011;58320;48.804;9.252;2023-03-05T06:13:33;25.98;;;10.23;;
70733;SDS011;58320;48.804;9.252;2023-03-05T06:16:00;24.60;;;9.37;;
70733;SDS011;58320;48.804;9.252;2023-03-05T06:18:28;21.83;;;9.23;;
70733;SDS011;58320;48.804;9.252;2023-03-05T06:20:55;24.35;;;9.50;;
70733;SDS011;58320;48.804;9.252;2023-03-05T06:23:23;22.35;;;8.80;;
70733;SDS011;58320;48.804;9.252;2023-03-05T06:25:50;24.02;;;9.82;;
70733;SDS011;58320;48.804;9.252;2023-03-05T06:28:18;19.80;;;8.80;;
70733;SDS011;58320;48.804;9.252;2023-03-05T06:30:44;22.00;;;8.95;;
70733;SDS011;58320;48.804;9.252;2023-03-05T06:33:10;22.77;;;8.52;;
70733;SDS011;58320;48.804;9.252;2023-03-05T06:35:37;21.33;;;8.63;;
70733;SDS011;58320;48.804;9.252;2023-03-05T06:38:07;24.20;;;9.17;;
70733;SDS011;58320;48.804;9.252;2023-03-05T06:40:33;20.88;;;9.15;;
70733;SDS011;58320;48.804;9.252;2023-03-05T06:43:03;24.30;;;8.70;;
70733;SDS011;58320;48.804;9.252;2023-03-05T06:45:28;21.77;;;9.20;;
70733;SDS011;58320;48.804;9.252;2023-03-05T06:47:54;28.95;;;9.25;;
70733;SDS011;58320;48.804;9.252;2023-03-05T06:50:20;21.43;;;9.60;;
70733;SDS011;58320;48.804;9.252;2023-03-05T06:52:47;19.55;;;8.30;;
70733;SDS011;58320;48.804;9.252;2023-03-05T06:55:14;20.45;;;8.13;;
70733;SDS011;58320;48.804;9.252;2023-03-05T06:57:41;23.63;;;9.80;;
70733;SDS011;58320;48.804;9.252;2023-03-05T07:00:07;23.17;;;8.90;;
70733;SDS011;58320;48.804;9.252;2023-03-05T07:02:36;20.60;;;8.95;;
70733;SDS011;58320;48.804;9.252;2023-03-05T07:05:02;22.63;;;9.18;;
70733;SDS011;58320;48.804;9.252;2023-03-05T07:07:30;21.08;;;9.15;;
70733;SDS011;58320;48.804;9.252;2023-03-05T07:09:57;22.40;;;8.97;;
70733;SDS011;58320;48.804;9.252;2023-03-05T07:12:22;23.85;;;8.98;;
70733;SDS011;58320;48.804;9.252;2023-03-05T07:14:48;21.65;;;9.30;;
70733;SDS011;58320;48.804;9.252;2023-03-05T07:17:14;23.03;;;8.93;;
70733;SDS011;58320;48.804;9.252;2023-03-05T07:19:40;24.10;;;9.45;;
70733;SDS011;58320;48.804;9.252;2023-03-05T07:22:07;20.88;;;8.52;;
70733;SDS011;58320;48.804;9.252;2023-03-05T07:24:33;22.05;;;8.65;;
70733;SDS011;58320;48.804;9.252;2023-03-05T07:26:59;22.43;;;9.50;;
70733;SDS011;58320;48.804;9.252;2023-03-05T07:29:25;21.58;;;9.35;;
70733;SDS011;58320;48.804;9.252;2023-03-05T07:31:52;20.17;;;8.35;;
70733;SDS011;58320;48.804;9.252;2023-03-05T07:34:19;23.63;;;9.40;;
70733;SDS011;58320;48.804;9.252;2023-03-05T07:36:48;23.10;;;9.07;;
70733;SDS011;58320;48.804;9.252;2023-03-05T07:39:15;24.85;;;9.00;;
70733;SDS011;58320;48.804;9.252;2023-03-05T07:41:43;24.05;;;9.40;;
70733;SDS011;58320;48.804;9.252;2023-03-05T07:44:10;21.45;;;9.43;;
70733;SDS011;58320;48.804;9.252;2023-03-05T07:46:36;26.60;;;10.07;;
70733;SDS011;58320;48.804;9.252;2023-03-05T07:49:02;21.25;;;8.77;;
70733;SDS011;58320;48.804;9.252;2023-03-05T07:51:28;18.73;;;8.25;;
70733;SDS011;58320;48.804;9.252;2023-03-05T07:53:55;22.98;;;9.18;;
70733;SDS011;58320;48.804;9.252;2023-03-05T07:56:26;23.10;;;9.43;;
70733;SDS011;58320;48.804;9.252;2023-03-05T07:59:00;25.55;;;9.52;;
70733;SDS011;58320;48.804;9.252;2023-03-05T08:01:32;22.00;;;10.02;;
70733;SDS011;58320;48.804;9.252;2023-03-05T08:03:59;24.20;;;9.85;;
70733;SDS011;58320;48.804;9.252;2023-03-05T08:06:26;22.63;;;9.40;;
70733;SDS011;58320;48.804;9.252;2023-03-05T08:08:53;21.80;;;9.00;;
70733;SDS011;58320;48.804;9.252;2023-03-05T08:11:19;18.08;;;8.63;;
70733;SDS011;58320;48.804;9.252;2023-03-05T08:13:45;24.30;;;9.10;;
70733;SDS011;58320;48.804;9.252;2023-03-05T08:16:12;16.52;;;8.13;;
70733;SDS011;58320;48.804;9.252;2023-03-05T08:18:41;19.50;;;8.90;;
70733;SDS011;58320;48.804;9.252;2023-03-05T08:21:14;24.47;;;9.63;;
70733;SDS011;58320;48.804;9.252;2023-03-05T08:23:42;19.02;;;8.70;;
70733;SDS011;58320;48.804;9.252;2023-03-05T08:26:15;21.15;;;8.82;;
70733;SDS011;58320;48.804;9.252;2023-03-05T08:28:44;22.97;;;9.67;;
70733;SDS011;58320;48.804;9.252;2023-03-05T08:31:11;20.02;;;8.93;;
70733;SDS011;58320;48.804;9.252;2023-03-05T08:33:39;21.38;;;10.18;;
70733;SDS011;58320;48.804;9.252;2023-03-05T08:36:06;24.45;;;11.27;;
70733;SDS011;58320;48.804;9.252;2023-03-05T08:38:34;19.65;;;9.57;;
70733;SDS011;58320;48.804;9.252;2023-03-05T08:41:00;21.07;;;8.53;;
70733;SDS011;58320;48.804;9.252;2023-03-05T08:43:27;22.63;;;9.65;;
70733;SDS011;58320;48.804;9.252;2023-03-05T08:45:54;19.23;;;9.32;;
70733;SDS011;58320;48.804;9.252;2023-03-05T08:48:21;22.60;;;9.55;;
70733;SDS011;58320;48.804;9.252;2023-03-05T08:50:47;24.95;;;9.65;;
70733;SDS011;58320;48.804;9.252;2023-03-05T08:53:13;21.37;;;9.60;;
70733;SDS011;58320;48.804;9.252;2023-03-05T08:55:39;20.00;;;9.35;;
70733;SDS011;58320;48.804;9.252;2023-03-05T08:58:05;19.13;;;8.98;;
70733;SDS011;58320;48.804;9.252;2023-03-05T09:00:31;22.33;;;9.30;;
70733;SDS011;58320;48.804;9.252;2023-03-05T09:02:57;21.17;;;10.23;;
70733;SDS011;58320;48.804;9.252;2023-03-05T09:05:22;21.63;;;10.00;;
70733;SDS011;58320;48.804;9.252;2023-03-05T09:07:48;17.77;;;8.60;;
70733;SDS011;58320;48.804;9.252;2023-03-05T09:10:14;21.52;;;9.15;;
70733;SDS011;58320;48.804;9.252;2023-03-05T09:12:42;24.47;;;9.50;;
70733;SDS011;58320;48.804;9.252;2023-03-05T09:15:08;22.15;;;9.95;;
70733;SDS011;58320;48.804;9.252;2023-03-05T09:17:36;24.70;;;10.48;;
70733;SDS011;58320;48.804;9.252;2023-03-05T09:20:03;18.73;;;9.00;;
70733;SDS011;58320;48.804;9.252;2023-03-05T09:22:31;21.88;;;9.18;;
70733;SDS011;58320;48.804;9.252;2023-03-05T09:24:57;21.03;;;8.87;;
70733;SDS011;58320;48.804;9.252;2023-03-05T09:27:23;20.30;;;9.07;;
70733;SDS011;58320;48.804;9.252;2023-03-05T09:29:48;23.60;;;10.80;;
70733;SDS011;58320;48.804;9.252;2023-03-05T09:32:14;22.87;;;9.53;;
70733;SDS011;58320;48.804;9.252;2023-03-05T09:34:40;21.20;;;8.98;;
70733;SDS011;58320;48.804;9.252;2023-03-05T09:37:07;21.67;;;9.30;;
70733;SDS011;58320;48.804;9.252;2023-03-05T09:39:33;20.27;;;9.20;;
70733;SDS011;58320;48.804;9.252;2023-03-05T09:45:15;22.43;;;8.47;;
70733;SDS011;58320;48.804;9.252;2023-03-05T09:48:23;19.77;;;8.90;;
70733;SDS011;58320;48.804;9.252;2023-03-05T09:51:20;21.27;;;8.48;;
70733;SDS011;58320;48.804;9.252;2023-03-05T09:54:04;21.27;;;9.57;;
70733;SDS011;58320;48.804;9.252;2023-03-05T09:56:41;26.70;;;10.00;;
70733;SDS011;58320;48.804;9.252;2023-03-05T09:59:16;24.00;;;9.67;;
70733;SDS011;58320;48.804;9.252;2023-03-05T10:01:46;21.50;;;9.35;;
70733;SDS011;58320;48.804;9.252;2023-03-05T10:04:59;22.38;;;9.75;;
70733;SDS011;58320;48.804;9.252;2023-03-05T10:07:29;21.73;;;10.10;;
70733;SDS011;58320;48.804;9.252;2023-03-05T10:15:09;24.77;;;10.68;;
70733;SDS011;58320;48.804;9.252;2023-03-05T10:23:27;20.40;;;10.18;;
70733;SDS011;58320;48.804;9.252;2023-03-05T10:31:40;22.25;;;9.75;;
70733;SDS011;58320;48.804;9.252;2023-03-05T10:42:46;24.70;;;10.35;;
70733;SDS011;58320;48.804;9.252;2023-03-05T10:45:42;21.38;;;9.15;;
70733;SDS011;58320;48.804;9.252;2023-03-05T10:48:19;20.33;;;9.07;;
70733;SDS011;58320;48.804;9.252;2023-03-05T10:51:14;19.80;;;8.57;;
70733;SDS011;58320;48.804;9.252;2023-03-05T10:56:22;23.77;;;9.45;;
70733;SDS011;58320;48.804;9.252;2023-03-05T10:58:51;24.30;;;9.75;;
70733;SDS011;58320;48.804;9.252;2023-03-05T11:01:22;22.75;;;9.07;;
70733;SDS011;58320;48.804;9.252;2023-03-05T11:03:51;18.00;;;9.10;;
70733;SDS011;58320;48.804;9.252;2023-03-05T11:06:26;18.13;;;9.57;;
70733;SDS011;58320;48.804;9.252;2023-03-05T11:09:00;23.25;;;9.85;;
70733;SDS011;58320;48.804;9.252;2023-03-05T11:17:39;22.60;;;10.10;;
70733;SDS011;58320;48.804;9.252;2023-03-05T11:28:36;20.75;;;10.48;;
70733;SDS011;58320;48.804;9.252;2023-03-05T11:33:54;23.97;;;11.27;;
70733;SDS011;58320;48.804;9.252;2023-03-05T11:41:35;23.98;;;11.13;;
70733;SDS011;58320;48.804;9.252;2023-03-05T11:44:10;21.30;;;9.52;;
70733;SDS011;58320;48.804;9.252;2023-03-05T11:46:51;24.27;;;9.63;;
70733;SDS011;58320;48.804;9.252;2023-03-05T11:49:27;24.10;;;10.15;;
70733;SDS011;58320;48.804;9.252;2023-03-05T11:51:57;21.73;;;9.80;;
70733;SDS011;58320;48.804;9.252;2023-03-05T11:54:41;20.67;;;8.80;;
70733;SDS011;58320;48.804;9.252;2023-03-05T11:57:18;21.52;;;10.43;;
70733;SDS011;58320;48.804;9.252;2023-03-05T11:59:47;21.87;;;9.53;;
70733;SDS011;58320;48.804;9.252;2023-03-05T12:02:22;19.38;;;8.98;;
70733;SDS011;58320;48.804;9.252;2023-03-05T12:04:51;20.75;;;9.18;;
70733;SDS011;58320;48.804;9.252;2023-03-05T12:07:28;19.65;;;8.40;;
70733;SDS011;58320;48.804;9.252;2023-03-05T12:10:04;21.98;;;8.65;;
70733;SDS011;58320;48.804;9.252;2023-03-05T12:18:53;19.33;;;7.68;;
70733;SDS011;58320;48.804;9.252;2023-03-05T12:21:29;19.65;;;8.32;;
70733;SDS011;58320;48.804;9.252;2023-03-05T12:24:31;18.25;;;8.23;;
70733;SDS011;58320;48.804;9.252;2023-03-05T12:32:05;19.02;;;9.13;;
70733;SDS011;58320;48.804;9.252;2023-03-05T12:35:26;19.17;;;8.85;;
70733;SDS011;58320;48.804;9.252;2023-03-05T12:38:01;20.20;;;8.48;;
70733;SDS011;58320;48.804;9.252;2023-03-05T12:40:39;17.50;;;8.30;;
70733;SDS011;58320;48.804;9.252;2023-03-05T12:43:05;18.33;;;8.95;;
70733;SDS011;58320;48.804;9.252;2023-03-05T12:46:20;18.65;;;8.70;;
70733;SDS011;58320;48.804;9.252;2023-03-05T12:48:52;17.30;;;7.97;;
70733;SDS011;58320;48.804;9.252;2023-03-05T12:51:28;20.75;;;8.43;;
70733;SDS011;58320;48.804;9.252;2023-03-05T12:53:58;20.55;;;8.90;;
70733;SDS011;58320;48.804;9.252;2023-03-05T12:56:48;19.05;;;8.05;;
70733;SDS011;58320;48.804;9.252;2023-03-05T12:59:17;19.48;;;9.00;;
70733;SDS011;58320;48.804;9.252;2023-03-05T13:01:49;19.10;;;7.97;;
70733;SDS011;58320;48.804;9.252;2023-03-05T13:04:27;23.73;;;8.52;;
70733;SDS011;58320;48.804;9.252;2023-03-05T13:07:00;19.95;;;9.40;;
70733;SDS011;58320;48.804;9.252;2023-03-05T13:09:39;19.73;;;8.57;;
70733;SDS011;58320;48.804;9.252;2023-03-05T13:12:10;19.57;;;8.57;;
70733;SDS011;58320;48.804;9.252;2023-03-05T13:14:44;20.27;;;9.48;;
70733;SDS011;58320;48.804;9.252;2023-03-05T13:17:24;18.50;;;8.27;;
70733;SDS011;58320;48.804;9.252;2023-03-05T13:19:53;19.90;;;8.57;;
70733;SDS011;58320;48.804;9.252;2023-03-05T13:22:19;22.85;;;9.25;;
70733;SDS011;58320;48.804;9.252;2023-03-05T13:24:48;20.07;;;8.90;;
70733;SDS011;58320;48.804;9.252;2023-03-05T13:27:29;19.05;;;9.32;;
70733;SDS011;58320;48.804;9.252;2023-03-05T13:29:56;20.17;;;8.38;;
70733;SDS011;58320;48.804;9.252;2023-03-05T13:32:24;19.20;;;8.60;;
70733;SDS011;58320;48.804;9.252;2023-03-05T13:34:57;20.35;;;8.77;;
70733;SDS011;58320;48.804;9.252;2023-03-05T13:37:32;18.20;;;7.85;;
70733;SDS011;58320;48.804;9.252;2023-03-05T13:40:13;18.45;;;8.63;;
70733;SDS011;58320;48.804;9.252;2023-03-05T13:43:07;18.55;;;8.38;;
70733;SDS011;58320;48.804;9.252;2023-03-05T13:45:36;19.53;;;8.07;;
70733;SDS011;58320;48.804;9.252;2023-03-05T13:48:04;18.63;;;8.55;;
70733;SDS011;58320;48.804;9.252;2023-03-05T13:50:34;18.02;;;8.48;;
70733;SDS011;58320;48.804;9.252;2023-03-05T13:53:16;21.33;;;8.68;;
70733;SDS011;58320;48.804;9.252;2023-03-05T13:55:50;19.17;;;9.23;;
70733;SDS011;58320;48.804;9.252;2023-03-05T14:01:39;21.58;;;9.30;;
70733;SDS011;58320;48.804;9.252;2023-03-05T14:06:40;21.42;;;9.13;;
70733;SDS011;58320;48.804;9.252;2023-03-05T14:09:28;17.13;;;7.75;;
70733;SDS011;58320;48.804;9.252;2023-03-05T14:12:20;18.93;;;8.13;;
70733;SDS011;58320;48.804;9.252;2023-03-05T14:15:50;19.58;;;8.70;;
70733;SDS011;58320;48.804;9.252;2023-03-05T14:20:56;19.50;;;9.27;;
70733;SDS011;58320;48.804;9.252;2023-03-05T14:23:41;17.92;;;8.52;;
70733;SDS011;58320;48.804;9.252;2023-03-05T14:26:17;18.13;;;8.53;;
70733;SDS011;58320;48.804;9.252;2023-03-05T14:28:43;17.30;;;8.07;;
70733;SDS011;58320;48.804;9.252;2023-03-05T14:31:19;19.02;;;8.30;;
70733;SDS011;58320;48.804;9.252;2023-03-05T14:33:47;17.92;;;8.73;;
70733;SDS011;58320;48.804;9.252;2023-03-05T14:36:19;18.17;;;8.88;;
70733;SDS011;58320;48.804;9.252;2023-03-05T14:38:50;18.30;;;8.53;;
70733;SDS011;58320;48.804;9.252;2023-03-05T14:43:55;19.65;;;8.43;;
70733;SDS011;58320;48.804;9.252;2023-03-05T14:46:21;18.23;;;8.38;;
70733;SDS011;58320;48.804;9.252;2023-03-05T14:48:47;17.03;;;8.17;;
70733;SDS011;58320;48.804;9.252;2023-03-05T14:51:12;19.80;;;9.65;;
70733;SDS011;58320;48.804;9.252;2023-03-05T14:53:39;20.80;;;9.57;;
70733;SDS011;58320;48.804;9.252;2023-03-05T14:56:15;20.58;;;9.57;;
70733;SDS011;58320;48.804;9.252;2023-03-05T14:58:51;16.65;;;7.97;;
70733;SDS011;58320;48.804;9.252;2023-03-05T15:01:17;16.83;;;8.38;;
70733;SDS011;58320;48.804;9.252;2023-03-05T15:03:43;20.77;;;9.10;;
70733;SDS011;58320;48.804;9.252;2023-03-05T15:06:14;17.23;;;7.78;;
70733;SDS011;58320;48.804;9.252;2023-03-05T15:08:53;22.13;;;8.90;;
70733;SDS011;58320;48.804;9.252;2023-03-05T15:11:19;18.42;;;8.05;;
70733;SDS011;58320;48.804;9.252;2023-03-05T15:13:46;19.13;;;8.40;;
70733;SDS011;58320;48.804;9.252;2023-03-05T15:16:14;20.23;;;8.77;;
70733;SDS011;58320;48.804;9.252;2023-03-05T15:18:41;19.95;;;8.43;;
70733;SDS011;58320;48.804;9.252;2023-03-05T15:21:07;17.13;;;8.10;;
70733;SDS011;58320;48.804;9.252;2023-03-05T15:23:33;19.43;;;9.07;;
70733;SDS011;58320;48.804;9.252;2023-03-05T15:26:00;19.95;;;9.43;;
70733;SDS011;58320;48.804;9.252;2023-03-05T15:28:30;19.75;;;8.35;;
70733;SDS011;58320;48.804;9.252;2023-03-05T15:31:01;18.65;;;8.80;;
70733;SDS011;58320;48.804;9.252;2023-03-05T15:33:28;22.13;;;9.32;;
70733;SDS011;58320;48.804;9.252;2023-03-05T15:35:54;20.07;;;9.53;;
70733;SDS011;58320;48.804;9.252;2023-03-05T15:38:20;22.65;;;9.73;;
70733;SDS011;58320;48.804;9.252;2023-03-05T15:40:46;22.17;;;9.38;;
70733;SDS011;58320;48.804;9.252;2023-03-05T15:43:13;39.40;;;13.45;;
70733;SDS011;58320;48.804;9.252;2023-03-05T15:45:39;21.73;;;10.03;;
70733;SDS011;58320;48.804;9.252;2023-03-05T15:48:05;21.67;;;9.75;;
70733;SDS011;58320;48.804;9.252;2023-03-05T15:50:31;21.10;;;9.25;;
70733;SDS011;58320;48.804;9.252;2023-03-05T15:52:57;20.03;;;9.53;;
70733;SDS011;58320;48.804;9.252;2023-03-05T15:55:23;20.90;;;9.73;;
70733;SDS011;58320;48.804;9.252;2023-03-05T15:57:49;24.05;;;10.15;;
70733;SDS011;58320;48.804;9.252;2023-03-05T16:00:18;20.33;;;9.48;;
70733;SDS011;58320;48.804;9.252;2023-03-05T16:02:50;20.27;;;9.07;;
70733;SDS011;58320;48.804;9.252;2023-03-05T16:05:16;18.30;;;8.95;;